AirNav   Air Wisconsin Up To $57,000 Bonus
 
 644 users online  

SC16 Curry Airport
Hartsville, South Carolina, USA

GOING TO HARTSVILLE?


FAA INFORMATION EFFECTIVE 03 NOVEMBER 2022

Location

FAA Identifier: SC16
Lat/Long: 34-22-40.5560N 080-00-19.2370W
34-22.675933N 080-00.320617W
34.3779322,-80.0053436
(estimated)
Elevation: 199 ft. / 60.7 m (surveyed)
Variation: 06W (1985)
From city: 3 miles E of HARTSVILLE, SC
Time zone: UTC -5 (UTC -4 during Daylight Saving Time)
Zip code: 29550

Airport Operations

Airport use: Private use. Permission required prior to landing
Activation date: 06/1963
Control tower: no
ARTCC: JACKSONVILLE CENTER
FSS: ANDERSON FLIGHT SERVICE STATION
Attendance: MAY-SEP MON-FRI 0700-1800
Wind indicator: yes
Segmented circle: no

Airport Communications

WX AWOS-3 at HVS (6 nm W): 118.225 (843-339-9625)
WX AWOS-3PT at UDG (7 nm NE): 119.925 (843-393-8220)
WX ASOS at FLO (18 nm SE): PHONE 843-665-1306
WX AWOS-3PT at BBP (20 nm NE): 123.825 (843-479-5817)

Nearby radio navigation aids

VOR radial/distance  VOR name  Freq  Var
FLOr300/19.3FLORENCE VORTAC115.2003W
CTFr144/21.1CHESTERFIELD VOR/DME114.5503W

 
NDB name  Hdg/Dist  Freq  Var  ID
HARTSVILLE114/5.934107WHVS .... ...- ...
DARLINGTON242/7.024506WUDG ..- -.. --.
ALCOT333/14.433505WFL ..-. .-..
BENNETTSVILLE231/19.823008WBES -... . ...
SUMTER044/29.125207WSMS ... -- ...
DILLON271/31.827409WDLC -.. .-.. -.-.
EVANS345/33.542006WCFY -.-. ..-. -.--

Airport Services

Airframe service: NONE
Powerplant service: NONE

Runway Information

Runway 1/19

Dimensions: 2600 x 200 ft. / 792 x 61 m
Surface: turf
RUNWAY 1  RUNWAY 19
Traffic pattern: leftleft
Obstructions: trees50 ft. trees, 100 ft. from runway

Airport Ownership and Management from official FAA records

Ownership: Privately-owned
Owner: B. W. CURRY
PO BOX 294
HARTSVILLE, SC 29550
Phone 803-332-9351
Manager: B. W. CURRY
PO BOX 294
HARTSVILLE, SC 29550
Phone 803-332-9351

Airport Operational Statistics

Aircraft based on the field: 1
Single engine airplanes: 1
    

Additional Remarks

FOR CD CTC FLORENCE APCH AT 843-669-5194, WHEN APCH CLSD CTC JACKSONVILLE ARTCC AT 904-845-1592.

Instrument Procedures

There are no published instrument procedures at SC16.

Some nearby airports with instrument procedures:

KHVS - Hartsville Regional Airport (6 nm W)
KUDG - Darlington County Airport (7 nm NE)
KFLO - Florence Regional Airport (18 nm SE)
KBBP - Marlboro County Jetport - H E Avent Field (20 nm NE)
KCQW - Cheraw Municipal Airport/Lynch Bellinger Field (20 nm N)
 
Loc | Ops | Rwys | IFR | FBO | Links
Com | Nav | Svcs | Stats | Notes
Area around SC16 (Curry Airport)
 
Road maps at: MapQuest Bing Google
 
Aerial photo
No photo
 
Sectional chart

 
Airport distance calculator
Flying to Curry Airport? Find the distance to fly.

From to SC16

Sunrise and sunset
Times for 27-Nov-2022
 Local
(UTC-5)
 Zulu
(UTC)
Morning civil twilight06:3811:38
Sunrise07:0612:06
Sunset17:1022:10
Evening civil twilight17:3722:37

Current date and time
Zulu (UTC)  27-Nov-2022 12:35:46
Local (UTC-5)  27-Nov-2022 07:35:46
 
METAR
KHVS 
6nm W 
271215Z AUTO 00000KT 1SM BR 12/11 A2986 RMK AO2
KUDG 
7nm NE 
271212Z AUTO 00000KT 4SM -RA BR OVC005 12/12 A2987 RMK AO2 PNO $
KFLO 
18nm SE 
271218Z 17004KT 1SM BR OVC003 17/17 A2987 RMK AO2 SFC VIS 5 RAE08 P0001 T01670167
KBBP 
20nm NE 
271215Z AUTO 00000KT 4SM -RA BKN003 OVC009 12/12 A2986 RMK AO2 P0001
TAF
KFLO 
18nm SE 
271146Z 2712/2812 08003KT 5SM -RA BR VCSH OVC004 TEMPO 2712/2713 BKN010 FM271300 17011KT P6SM VCSH BKN015 WS020/19040KT TEMPO 2713/2716 3SM SHRA BR FM271600 22015G25KT 5SM SHRA BR VCTS BKN015CB WS020/21050KT FM272000 23013G20KT P6SM BKN250 WS020/24040KT FM280600 26011KT P6SM SKC WS020/27045KT
NOTAMs
Click for the latest NOTAMs
NOTAMs are issued by the DoD/FAA and will open in a separate window not controlled by AirNav.

 

 
 

Would you like to see your business listed on this page?

 If your business provides an interesting product or service to pilots, flight crews, aircraft, or users of the Curry Airport, you should consider listing it here.  To start the listing process, click on the button below
 
Add a business
 

Other Pages about Curry Airport

Update a link
 
Copyright © AirNav, LLC. All rights reserved. Privacy Policy  Contact